sensor_id;sensor_type;location;lat;lon;timestamp;P1;durP1;ratioP1;P2;durP2;ratioP2
23290;SDS011;11814;44.686;10.842;2023-04-15T00:01:20;6.38;;;1.45;;
23290;SDS011;11814;44.686;10.842;2023-04-15T00:03:46;5.80;;;1.70;;
23290;SDS011;11814;44.686;10.842;2023-04-15T00:06:12;3.80;;;1.52;;
23290;SDS011;11814;44.686;10.842;2023-04-15T00:08:38;4.20;;;1.75;;
23290;SDS011;11814;44.686;10.842;2023-04-15T00:11:04;7.78;;;1.70;;
23290;SDS011;11814;44.686;10.842;2023-04-15T00:13:33;6.32;;;1.75;;
23290;SDS011;11814;44.686;10.842;2023-04-15T00:15:58;4.03;;;1.88;;
23290;SDS011;11814;44.686;10.842;2023-04-15T00:18:25;3.15;;;1.67;;
23290;SDS011;11814;44.686;10.842;2023-04-15T00:20:51;4.63;;;2.05;;
23290;SDS011;11814;44.686;10.842;2023-04-15T00:23:17;4.13;;;1.50;;
23290;SDS011;11814;44.686;10.842;2023-04-15T00:25:43;3.38;;;1.63;;
23290;SDS011;11814;44.686;10.842;2023-04-15T00:28:09;4.13;;;1.90;;
23290;SDS011;11814;44.686;10.842;2023-04-15T00:30:35;3.47;;;1.60;;
23290;SDS011;11814;44.686;10.842;2023-04-15T00:33:01;3.42;;;1.63;;
23290;SDS011;11814;44.686;10.842;2023-04-15T00:35:27;2.38;;;1.60;;
23290;SDS011;11814;44.686;10.842;2023-04-15T00:37:53;2.33;;;1.52;;
23290;SDS011;11814;44.686;10.842;2023-04-15T00:40:20;3.38;;;1.50;;
23290;SDS011;11814;44.686;10.842;2023-04-15T00:42:46;3.75;;;1.50;;
23290;SDS011;11814;44.686;10.842;2023-04-15T00:45:12;3.00;;;1.60;;
23290;SDS011;11814;44.686;10.842;2023-04-15T00:47:38;2.47;;;1.80;;
23290;SDS011;11814;44.686;10.842;2023-04-15T00:50:07;4.30;;;2.45;;
23290;SDS011;11814;44.686;10.842;2023-04-15T00:52:33;4.22;;;2.80;;
23290;SDS011;11814;44.686;10.842;2023-04-15T00:54:59;3.67;;;2.38;;
23290;SDS011;11814;44.686;10.842;2023-04-15T00:57:25;5.65;;;2.80;;
23290;SDS011;11814;44.686;10.842;2023-04-15T00:59:52;4.30;;;2.65;;
23290;SDS011;11814;44.686;10.842;2023-04-15T01:02:20;4.05;;;2.65;;
23290;SDS011;11814;44.686;10.842;2023-04-15T01:04:47;6.25;;;3.15;;
23290;SDS011;11814;44.686;10.842;2023-04-15T01:07:13;5.95;;;3.50;;
23290;SDS011;11814;44.686;10.842;2023-04-15T01:09:40;7.93;;;2.80;;
23290;SDS011;11814;44.686;10.842;2023-04-15T01:12:06;4.13;;;2.58;;
23290;SDS011;11814;44.686;10.842;2023-04-15T01:14:32;7.25;;;2.50;;
23290;SDS011;11814;44.686;10.842;2023-04-15T01:16:58;7.55;;;2.40;;
23290;SDS011;11814;44.686;10.842;2023-04-15T01:19:24;3.65;;;2.50;;
23290;SDS011;11814;44.686;10.842;2023-04-15T01:21:51;8.02;;;2.88;;
23290;SDS011;11814;44.686;10.842;2023-04-15T01:24:17;4.50;;;2.47;;
23290;SDS011;11814;44.686;10.842;2023-04-15T01:26:43;4.40;;;2.50;;
23290;SDS011;11814;44.686;10.842;2023-04-15T01:29:09;5.20;;;2.80;;
23290;SDS011;11814;44.686;10.842;2023-04-15T01:31:35;7.45;;;3.50;;
23290;SDS011;11814;44.686;10.842;2023-04-15T01:34:01;7.03;;;3.88;;
23290;SDS011;11814;44.686;10.842;2023-04-15T01:36:27;6.72;;;3.20;;
23290;SDS011;11814;44.686;10.842;2023-04-15T01:38:54;5.78;;;3.10;;
23290;SDS011;11814;44.686;10.842;2023-04-15T01:41:24;7.68;;;3.30;;
23290;SDS011;11814;44.686;10.842;2023-04-15T01:43:53;7.88;;;2.58;;
23290;SDS011;11814;44.686;10.842;2023-04-15T01:46:19;6.28;;;2.75;;
23290;SDS011;11814;44.686;10.842;2023-04-15T01:48:45;4.50;;;2.42;;
23290;SDS011;11814;44.686;10.842;2023-04-15T01:51:11;6.75;;;2.97;;
23290;SDS011;11814;44.686;10.842;2023-04-15T01:53:37;10.18;;;3.40;;
23290;SDS011;11814;44.686;10.842;2023-04-15T01:56:03;7.57;;;3.45;;
23290;SDS011;11814;44.686;10.842;2023-04-15T01:58:29;8.43;;;3.55;;
23290;SDS011;11814;44.686;10.842;2023-04-15T02:00:55;5.20;;;3.22;;
23290;SDS011;11814;44.686;10.842;2023-04-15T02:03:21;8.35;;;3.00;;
23290;SDS011;11814;44.686;10.842;2023-04-15T02:05:47;6.15;;;2.50;;
23290;SDS011;11814;44.686;10.842;2023-04-15T02:08:13;7.30;;;2.85;;
23290;SDS011;11814;44.686;10.842;2023-04-15T02:10:39;5.95;;;2.50;;
23290;SDS011;11814;44.686;10.842;2023-04-15T02:13:04;3.38;;;2.30;;
23290;SDS011;11814;44.686;10.842;2023-04-15T02:15:30;8.07;;;3.00;;
23290;SDS011;11814;44.686;10.842;2023-04-15T02:17:57;4.10;;;2.60;;
23290;SDS011;11814;44.686;10.842;2023-04-15T02:20:24;5.88;;;2.70;;
23290;SDS011;11814;44.686;10.842;2023-04-15T02:22:50;8.13;;;3.10;;
23290;SDS011;11814;44.686;10.842;2023-04-15T02:25:16;4.97;;;3.00;;
23290;SDS011;11814;44.686;10.842;2023-04-15T02:27:42;5.55;;;2.38;;
23290;SDS011;11814;44.686;10.842;2023-04-15T02:30:08;8.13;;;2.80;;
23290;SDS011;11814;44.686;10.842;2023-04-15T02:32:34;8.27;;;2.55;;
23290;SDS011;11814;44.686;10.842;2023-04-15T02:35:05;5.38;;;2.60;;
23290;SDS011;11814;44.686;10.842;2023-04-15T02:37:34;4.07;;;2.20;;
23290;SDS011;11814;44.686;10.842;2023-04-15T02:40:13;6.18;;;2.67;;
23290;SDS011;11814;44.686;10.842;2023-04-15T02:42:39;4.90;;;2.53;;
23290;SDS011;11814;44.686;10.842;2023-04-15T02:45:06;4.85;;;2.38;;
23290;SDS011;11814;44.686;10.842;2023-04-15T02:47:33;7.95;;;2.60;;
23290;SDS011;11814;44.686;10.842;2023-04-15T02:50:00;6.18;;;2.38;;
23290;SDS011;11814;44.686;10.842;2023-04-15T02:52:29;5.63;;;2.40;;
23290;SDS011;11814;44.686;10.842;2023-04-15T02:54:55;3.75;;;2.20;;
23290;SDS011;11814;44.686;10.842;2023-04-15T02:57:25;6.70;;;2.50;;
23290;SDS011;11814;44.686;10.842;2023-04-15T02:59:52;6.95;;;2.60;;
23290;SDS011;11814;44.686;10.842;2023-04-15T03:02:18;8.13;;;2.80;;
23290;SDS011;11814;44.686;10.842;2023-04-15T03:04:43;9.23;;;2.53;;
23290;SDS011;11814;44.686;10.842;2023-04-15T03:07:09;4.10;;;2.40;;
23290;SDS011;11814;44.686;10.842;2023-04-15T03:09:35;7.72;;;2.90;;
23290;SDS011;11814;44.686;10.842;2023-04-15T03:12:01;4.13;;;1.98;;
23290;SDS011;11814;44.686;10.842;2023-04-15T03:14:27;7.07;;;1.98;;
23290;SDS011;11814;44.686;10.842;2023-04-15T03:16:52;4.82;;;2.20;;
23290;SDS011;11814;44.686;10.842;2023-04-15T03:19:18;5.22;;;2.47;;
23290;SDS011;11814;44.686;10.842;2023-04-15T03:21:44;8.07;;;2.70;;
23290;SDS011;11814;44.686;10.842;2023-04-15T03:24:10;7.22;;;2.65;;
23290;SDS011;11814;44.686;10.842;2023-04-15T03:26:36;6.25;;;2.53;;
23290;SDS011;11814;44.686;10.842;2023-04-15T03:29:01;5.25;;;2.15;;
23290;SDS011;11814;44.686;10.842;2023-04-15T03:31:27;8.68;;;2.83;;
23290;SDS011;11814;44.686;10.842;2023-04-15T03:33:53;5.88;;;2.28;;
23290;SDS011;11814;44.686;10.842;2023-04-15T03:36:18;7.60;;;2.45;;
23290;SDS011;11814;44.686;10.842;2023-04-15T03:38:44;4.88;;;2.30;;
23290;SDS011;11814;44.686;10.842;2023-04-15T03:41:10;4.40;;;2.22;;
23290;SDS011;11814;44.686;10.842;2023-04-15T03:43:36;4.28;;;2.50;;
23290;SDS011;11814;44.686;10.842;2023-04-15T03:46:01;6.53;;;2.40;;
23290;SDS011;11814;44.686;10.842;2023-04-15T03:48:27;9.55;;;3.33;;
23290;SDS011;11814;44.686;10.842;2023-04-15T03:50:53;5.68;;;2.33;;
23290;SDS011;11814;44.686;10.842;2023-04-15T03:53:20;7.32;;;2.40;;
23290;SDS011;11814;44.686;10.842;2023-04-15T03:55:45;7.43;;;2.30;;
23290;SDS011;11814;44.686;10.842;2023-04-15T03:58:11;7.28;;;2.25;;
23290;SDS011;11814;44.686;10.842;2023-04-15T04:00:38;5.80;;;2.35;;
23290;SDS011;11814;44.686;10.842;2023-04-15T04:03:05;5.60;;;2.75;;
23290;SDS011;11814;44.686;10.842;2023-04-15T04:05:31;12.20;;;3.55;;
23290;SDS011;11814;44.686;10.842;2023-04-15T04:07:56;7.35;;;2.55;;
23290;SDS011;11814;44.686;10.842;2023-04-15T04:10:22;8.45;;;2.90;;
23290;SDS011;11814;44.686;10.842;2023-04-15T04:12:48;5.40;;;2.40;;
23290;SDS011;11814;44.686;10.842;2023-04-15T04:15:14;7.53;;;3.00;;
23290;SDS011;11814;44.686;10.842;2023-04-15T04:17:40;12.68;;;3.10;;
23290;SDS011;11814;44.686;10.842;2023-04-15T04:20:06;8.85;;;2.83;;
23290;SDS011;11814;44.686;10.842;2023-04-15T04:22:36;9.20;;;3.40;;
23290;SDS011;11814;44.686;10.842;2023-04-15T04:25:03;9.55;;;3.78;;
23290;SDS011;11814;44.686;10.842;2023-04-15T04:27:29;4.93;;;2.88;;
23290;SDS011;11814;44.686;10.842;2023-04-15T04:29:55;7.20;;;3.10;;
23290;SDS011;11814;44.686;10.842;2023-04-15T04:32:21;5.45;;;3.13;;
23290;SDS011;11814;44.686;10.842;2023-04-15T04:34:46;8.75;;;3.38;;
23290;SDS011;11814;44.686;10.842;2023-04-15T04:37:12;9.90;;;3.35;;
23290;SDS011;11814;44.686;10.842;2023-04-15T04:39:38;8.02;;;3.20;;
23290;SDS011;11814;44.686;10.842;2023-04-15T04:42:04;10.10;;;3.50;;
23290;SDS011;11814;44.686;10.842;2023-04-15T04:44:30;8.75;;;3.22;;
23290;SDS011;11814;44.686;10.842;2023-04-15T04:46:56;9.50;;;3.65;;
23290;SDS011;11814;44.686;10.842;2023-04-15T04:49:21;7.05;;;3.05;;
23290;SDS011;11814;44.686;10.842;2023-04-15T04:51:47;7.68;;;3.38;;
23290;SDS011;11814;44.686;10.842;2023-04-15T04:54:13;6.18;;;2.92;;
23290;SDS011;11814;44.686;10.842;2023-04-15T04:56:39;10.20;;;3.22;;
23290;SDS011;11814;44.686;10.842;2023-04-15T04:59:05;5.65;;;3.17;;
23290;SDS011;11814;44.686;10.842;2023-04-15T05:01:31;5.97;;;2.78;;
23290;SDS011;11814;44.686;10.842;2023-04-15T05:03:58;4.43;;;2.50;;
23290;SDS011;11814;44.686;10.842;2023-04-15T05:06:24;16.35;;;11.75;;
23290;SDS011;11814;44.686;10.842;2023-04-15T05:08:50;13.75;;;4.93;;
23290;SDS011;11814;44.686;10.842;2023-04-15T05:11:16;6.38;;;4.00;;
23290;SDS011;11814;44.686;10.842;2023-04-15T05:13:41;9.45;;;3.83;;
23290;SDS011;11814;44.686;10.842;2023-04-15T05:16:07;7.45;;;3.17;;
23290;SDS011;11814;44.686;10.842;2023-04-15T05:18:33;5.82;;;3.00;;
23290;SDS011;11814;44.686;10.842;2023-04-15T05:20:59;3.90;;;2.63;;
23290;SDS011;11814;44.686;10.842;2023-04-15T05:23:25;6.63;;;3.03;;
23290;SDS011;11814;44.686;10.842;2023-04-15T05:25:51;6.22;;;2.78;;
23290;SDS011;11814;44.686;10.842;2023-04-15T05:28:16;4.15;;;2.58;;
23290;SDS011;11814;44.686;10.842;2023-04-15T05:30:42;9.65;;;3.22;;
23290;SDS011;11814;44.686;10.842;2023-04-15T05:33:08;8.27;;;3.20;;
23290;SDS011;11814;44.686;10.842;2023-04-15T05:35:34;10.93;;;3.00;;
23290;SDS011;11814;44.686;10.842;2023-04-15T05:37:59;7.25;;;3.30;;
23290;SDS011;11814;44.686;10.842;2023-04-15T05:40:25;9.57;;;3.20;;
23290;SDS011;11814;44.686;10.842;2023-04-15T05:42:51;7.10;;;4.05;;
23290;SDS011;11814;44.686;10.842;2023-04-15T05:45:17;13.73;;;5.82;;
23290;SDS011;11814;44.686;10.842;2023-04-15T05:47:42;10.18;;;3.63;;
23290;SDS011;11814;44.686;10.842;2023-04-15T05:50:08;10.43;;;3.45;;
23290;SDS011;11814;44.686;10.842;2023-04-15T05:52:35;5.85;;;3.15;;
23290;SDS011;11814;44.686;10.842;2023-04-15T05:55:01;9.13;;;3.88;;
23290;SDS011;11814;44.686;10.842;2023-04-15T05:57:26;7.30;;;3.50;;
23290;SDS011;11814;44.686;10.842;2023-04-15T05:59:52;9.95;;;3.35;;
23290;SDS011;11814;44.686;10.842;2023-04-15T06:02:18;4.55;;;2.90;;
23290;SDS011;11814;44.686;10.842;2023-04-15T06:04:43;6.15;;;2.88;;
23290;SDS011;11814;44.686;10.842;2023-04-15T06:07:09;5.25;;;3.33;;
23290;SDS011;11814;44.686;10.842;2023-04-15T06:09:35;4.95;;;3.13;;
23290;SDS011;11814;44.686;10.842;2023-04-15T06:12:01;7.15;;;3.20;;
23290;SDS011;11814;44.686;10.842;2023-04-15T06:14:27;5.18;;;3.10;;
23290;SDS011;11814;44.686;10.842;2023-04-15T06:16:52;8.40;;;3.25;;
23290;SDS011;11814;44.686;10.842;2023-04-15T06:19:18;6.43;;;3.45;;
23290;SDS011;11814;44.686;10.842;2023-04-15T06:21:44;7.00;;;3.30;;
23290;SDS011;11814;44.686;10.842;2023-04-15T06:24:10;8.13;;;4.00;;
23290;SDS011;11814;44.686;10.842;2023-04-15T06:26:36;10.25;;;4.43;;
23290;SDS011;11814;44.686;10.842;2023-04-15T06:29:02;9.40;;;4.32;;
23290;SDS011;11814;44.686;10.842;2023-04-15T06:31:28;8.25;;;4.60;;
23290;SDS011;11814;44.686;10.842;2023-04-15T06:33:54;7.72;;;4.82;;
23290;SDS011;11814;44.686;10.842;2023-04-15T06:36:20;7.30;;;4.80;;
23290;SDS011;11814;44.686;10.842;2023-04-15T06:38:46;11.43;;;4.13;;
23290;SDS011;11814;44.686;10.842;2023-04-15T06:41:11;7.05;;;4.10;;
23290;SDS011;11814;44.686;10.842;2023-04-15T06:43:38;7.38;;;4.57;;
23290;SDS011;11814;44.686;10.842;2023-04-15T06:46:04;9.15;;;5.00;;
23290;SDS011;11814;44.686;10.842;2023-04-15T06:48:30;10.18;;;4.65;;
23290;SDS011;11814;44.686;10.842;2023-04-15T06:50:56;7.03;;;4.35;;
23290;SDS011;11814;44.686;10.842;2023-04-15T06:53:24;9.00;;;4.45;;
23290;SDS011;11814;44.686;10.842;2023-04-15T06:55:52;10.90;;;4.95;;
23290;SDS011;11814;44.686;10.842;2023-04-15T06:58:17;7.65;;;4.78;;
23290;SDS011;11814;44.686;10.842;2023-04-15T07:00:43;9.85;;;5.18;;
23290;SDS011;11814;44.686;10.842;2023-04-15T07:03:10;9.27;;;4.75;;
23290;SDS011;11814;44.686;10.842;2023-04-15T07:05:37;11.30;;;4.32;;
23290;SDS011;11814;44.686;10.842;2023-04-15T07:08:03;7.15;;;4.43;;
23290;SDS011;11814;44.686;10.842;2023-04-15T07:10:29;8.88;;;4.78;;
23290;SDS011;11814;44.686;10.842;2023-04-15T07:12:55;7.35;;;4.53;;
23290;SDS011;11814;44.686;10.842;2023-04-15T07:15:21;11.18;;;4.97;;
23290;SDS011;11814;44.686;10.842;2023-04-15T07:17:47;10.73;;;4.88;;
23290;SDS011;11814;44.686;10.842;2023-04-15T07:20:13;8.10;;;4.70;;
23290;SDS011;11814;44.686;10.842;2023-04-15T07:22:39;9.20;;;5.05;;
23290;SDS011;11814;44.686;10.842;2023-04-15T07:25:05;12.27;;;5.43;;
23290;SDS011;11814;44.686;10.842;2023-04-15T07:27:31;7.65;;;5.53;;
23290;SDS011;11814;44.686;10.842;2023-04-15T07:29:57;11.50;;;5.68;;
23290;SDS011;11814;44.686;10.842;2023-04-15T07:32:23;8.98;;;5.97;;
23290;SDS011;11814;44.686;10.842;2023-04-15T07:34:49;8.82;;;6.05;;
23290;SDS011;11814;44.686;10.842;2023-04-15T07:37:14;7.80;;;5.97;;
23290;SDS011;11814;44.686;10.842;2023-04-15T07:39:40;8.63;;;5.72;;
23290;SDS011;11814;44.686;10.842;2023-04-15T07:42:06;7.70;;;5.22;;
23290;SDS011;11814;44.686;10.842;2023-04-15T07:44:32;9.07;;;5.10;;
23290;SDS011;11814;44.686;10.842;2023-04-15T07:46:58;6.63;;;5.40;;
23290;SDS011;11814;44.686;10.842;2023-04-15T07:49:24;8.35;;;5.40;;
23290;SDS011;11814;44.686;10.842;2023-04-15T07:51:50;9.20;;;5.03;;
23290;SDS011;11814;44.686;10.842;2023-04-15T07:54:16;9.93;;;5.53;;
23290;SDS011;11814;44.686;10.842;2023-04-15T07:56:41;7.53;;;5.10;;
23290;SDS011;11814;44.686;10.842;2023-04-15T07:59:07;12.13;;;5.88;;
23290;SDS011;11814;44.686;10.842;2023-04-15T08:01:33;8.65;;;5.55;;
23290;SDS011;11814;44.686;10.842;2023-04-15T08:03:59;7.97;;;5.38;;
23290;SDS011;11814;44.686;10.842;2023-04-15T08:06:25;12.50;;;5.10;;
23290;SDS011;11814;44.686;10.842;2023-04-15T08:08:51;7.97;;;4.57;;
23290;SDS011;11814;44.686;10.842;2023-04-15T08:11:19;10.55;;;4.72;;
23290;SDS011;11814;44.686;10.842;2023-04-15T08:13:45;8.70;;;4.55;;
23290;SDS011;11814;44.686;10.842;2023-04-15T08:18:47;6.25;;;4.00;;
23290;SDS011;11814;44.686;10.842;2023-04-15T08:21:14;7.72;;;4.18;;
23290;SDS011;11814;44.686;10.842;2023-04-15T08:23:41;7.57;;;3.38;;
23290;SDS011;11814;44.686;10.842;2023-04-15T08:26:07;8.43;;;3.70;;
23290;SDS011;11814;44.686;10.842;2023-04-15T08:28:34;7.93;;;4.20;;
23290;SDS011;11814;44.686;10.842;2023-04-15T08:31:01;7.88;;;3.70;;
23290;SDS011;11814;44.686;10.842;2023-04-15T08:33:27;9.70;;;3.85;;
23290;SDS011;11814;44.686;10.842;2023-04-15T08:35:53;5.90;;;3.95;;
23290;SDS011;11814;44.686;10.842;2023-04-15T08:38:18;8.95;;;3.53;;
23290;SDS011;11814;44.686;10.842;2023-04-15T08:40:44;6.70;;;4.15;;
23290;SDS011;11814;44.686;10.842;2023-04-15T08:43:32;8.68;;;4.38;;
23290;SDS011;11814;44.686;10.842;2023-04-15T08:45:58;9.00;;;4.50;;
23290;SDS011;11814;44.686;10.842;2023-04-15T08:48:29;7.93;;;4.50;;
23290;SDS011;11814;44.686;10.842;2023-04-15T08:50:57;10.40;;;4.07;;
23290;SDS011;11814;44.686;10.842;2023-04-15T08:53:23;12.48;;;3.53;;
23290;SDS011;11814;44.686;10.842;2023-04-15T08:55:51;9.43;;;3.03;;
23290;SDS011;11814;44.686;10.842;2023-04-15T08:58:18;9.52;;;3.58;;
23290;SDS011;11814;44.686;10.842;2023-04-15T09:00:44;11.32;;;4.30;;
23290;SDS011;11814;44.686;10.842;2023-04-15T09:03:10;7.03;;;4.10;;
23290;SDS011;11814;44.686;10.842;2023-04-15T09:05:36;10.45;;;4.18;;
23290;SDS011;11814;44.686;10.842;2023-04-15T09:08:03;12.70;;;4.40;;
23290;SDS011;11814;44.686;10.842;2023-04-15T09:10:29;7.05;;;4.25;;
23290;SDS011;11814;44.686;10.842;2023-04-15T09:12:56;8.25;;;3.55;;
23290;SDS011;11814;44.686;10.842;2023-04-15T09:15:25;8.90;;;3.35;;
23290;SDS011;11814;44.686;10.842;2023-04-15T09:17:54;8.93;;;3.25;;
23290;SDS011;11814;44.686;10.842;2023-04-15T09:20:20;11.40;;;3.88;;
23290;SDS011;11814;44.686;10.842;2023-04-15T09:22:48;14.73;;;4.13;;
23290;SDS011;11814;44.686;10.842;2023-04-15T09:30:16;7.80;;;3.20;;
23290;SDS011;11814;44.686;10.842;2023-04-15T09:32:54;7.97;;;3.13;;
23290;SDS011;11814;44.686;10.842;2023-04-15T09:35:21;9.35;;;2.85;;
23290;SDS011;11814;44.686;10.842;2023-04-15T09:37:52;8.18;;;3.30;;
23290;SDS011;11814;44.686;10.842;2023-04-15T09:43:00;9.27;;;3.50;;
23290;SDS011;11814;44.686;10.842;2023-04-15T09:45:31;7.28;;;3.10;;
23290;SDS011;11814;44.686;10.842;2023-04-15T09:47:57;9.80;;;3.00;;
23290;SDS011;11814;44.686;10.842;2023-04-15T09:50:39;11.68;;;3.00;;
23290;SDS011;11814;44.686;10.842;2023-04-15T09:53:08;8.07;;;3.33;;
23290;SDS011;11814;44.686;10.842;2023-04-15T09:55:35;9.23;;;3.17;;
23290;SDS011;11814;44.686;10.842;2023-04-15T09:58:01;8.77;;;3.33;;
23290;SDS011;11814;44.686;10.842;2023-04-15T10:00:34;7.32;;;3.05;;
23290;SDS011;11814;44.686;10.842;2023-04-15T10:03:01;4.95;;;2.53;;
23290;SDS011;11814;44.686;10.842;2023-04-15T10:05:29;6.85;;;3.03;;
23290;SDS011;11814;44.686;10.842;2023-04-15T10:07:56;6.05;;;3.00;;
23290;SDS011;11814;44.686;10.842;2023-04-15T10:10:22;9.18;;;2.90;;
23290;SDS011;11814;44.686;10.842;2023-04-15T10:12:48;6.03;;;3.38;;
23290;SDS011;11814;44.686;10.842;2023-04-15T10:15:16;9.52;;;3.38;;
23290;SDS011;11814;44.686;10.842;2023-04-15T10:17:43;10.27;;;3.30;;
23290;SDS011;11814;44.686;10.842;2023-04-15T10:20:09;6.20;;;2.83;;
23290;SDS011;11814;44.686;10.842;2023-04-15T10:22:37;10.13;;;2.45;;
23290;SDS011;11814;44.686;10.842;2023-04-15T10:25:05;8.18;;;3.08;;
23290;SDS011;11814;44.686;10.842;2023-04-15T10:27:31;6.05;;;2.65;;
23290;SDS011;11814;44.686;10.842;2023-04-15T10:29:59;10.52;;;2.63;;
23290;SDS011;11814;44.686;10.842;2023-04-15T10:32:27;10.50;;;2.80;;
23290;SDS011;11814;44.686;10.842;2023-04-15T10:34:54;5.53;;;2.60;;
23290;SDS011;11814;44.686;10.842;2023-04-15T10:37:21;7.93;;;3.03;;
23290;SDS011;11814;44.686;10.842;2023-04-15T10:39:57;8.85;;;3.30;;
23290;SDS011;11814;44.686;10.842;2023-04-15T10:42:22;7.47;;;2.95;;
23290;SDS011;11814;44.686;10.842;2023-04-15T10:44:49;8.80;;;2.85;;
23290;SDS011;11814;44.686;10.842;2023-04-15T10:47:17;10.98;;;3.33;;
23290;SDS011;11814;44.686;10.842;2023-04-15T10:49:45;6.90;;;2.78;;
23290;SDS011;11814;44.686;10.842;2023-04-15T10:52:22;7.95;;;3.22;;
23290;SDS011;11814;44.686;10.842;2023-04-15T10:54:49;6.88;;;2.83;;
23290;SDS011;11814;44.686;10.842;2023-04-15T10:57:38;10.65;;;3.17;;
23290;SDS011;11814;44.686;10.842;2023-04-15T11:05:08;7.93;;;3.38;;
23290;SDS011;11814;44.686;10.842;2023-04-15T11:07:51;11.95;;;3.53;;
23290;SDS011;11814;44.686;10.842;2023-04-15T11:12:51;7.85;;;3.00;;
23290;SDS011;11814;44.686;10.842;2023-04-15T11:18:11;7.72;;;3.05;;
23290;SDS011;11814;44.686;10.842;2023-04-15T11:20:37;8.55;;;3.20;;
23290;SDS011;11814;44.686;10.842;2023-04-15T11:23:04;5.55;;;2.97;;
23290;SDS011;11814;44.686;10.842;2023-04-15T11:25:31;6.57;;;2.75;;
23290;SDS011;11814;44.686;10.842;2023-04-15T11:27:58;9.05;;;2.92;;
23290;SDS011;11814;44.686;10.842;2023-04-15T11:30:27;6.90;;;3.20;;
23290;SDS011;11814;44.686;10.842;2023-04-15T11:32:56;7.20;;;2.88;;
23290;SDS011;11814;44.686;10.842;2023-04-15T11:35:24;7.90;;;2.85;;
23290;SDS011;11814;44.686;10.842;2023-04-15T11:37:50;5.97;;;2.80;;
23290;SDS011;11814;44.686;10.842;2023-04-15T11:40:16;5.78;;;3.10;;
23290;SDS011;11814;44.686;10.842;2023-04-15T11:42:46;6.35;;;3.47;;
23290;SDS011;11814;44.686;10.842;2023-04-15T11:45:58;7.63;;;3.15;;
23290;SDS011;11814;44.686;10.842;2023-04-15T11:48:25;5.55;;;3.00;;
23290;SDS011;11814;44.686;10.842;2023-04-15T11:50:53;7.30;;;3.33;;
23290;SDS011;11814;44.686;10.842;2023-04-15T11:53:20;9.13;;;3.53;;
23290;SDS011;11814;44.686;10.842;2023-04-15T11:55:48;7.72;;;3.17;;
23290;SDS011;11814;44.686;10.842;2023-04-15T12:00:50;6.80;;;3.80;;
23290;SDS011;11814;44.686;10.842;2023-04-15T12:03:28;8.52;;;3.38;;
23290;SDS011;11814;44.686;10.842;2023-04-15T12:14:04;6.25;;;3.13;;
23290;SDS011;11814;44.686;10.842;2023-04-15T12:16:34;5.55;;;2.92;;
23290;SDS011;11814;44.686;10.842;2023-04-15T12:19:06;6.53;;;3.17;;
23290;SDS011;11814;44.686;10.842;2023-04-15T12:21:35;9.05;;;3.55;;
23290;SDS011;11814;44.686;10.842;2023-04-15T12:24:04;6.88;;;3.25;;
23290;SDS011;11814;44.686;10.842;2023-04-15T12:26:37;6.35;;;3.63;;
23290;SDS011;11814;44.686;10.842;2023-04-15T12:29:09;10.88;;;4.07;;
23290;SDS011;11814;44.686;10.842;2023-04-15T12:31:36;6.05;;;4.00;;
23290;SDS011;11814;44.686;10.842;2023-04-15T12:34:32;7.38;;;3.58;;
23290;SDS011;11814;44.686;10.842;2023-04-15T12:37:00;6.60;;;3.22;;
23290;SDS011;11814;44.686;10.842;2023-04-15T12:39:28;6.47;;;3.50;;
23290;SDS011;11814;44.686;10.842;2023-04-15T12:41:54;7.22;;;3.38;;
23290;SDS011;11814;44.686;10.842;2023-04-15T12:44:21;6.38;;;3.70;;
23290;SDS011;11814;44.686;10.842;2023-04-15T12:46:48;8.88;;;3.40;;
23290;SDS011;11814;44.686;10.842;2023-04-15T12:49:17;6.18;;;3.30;;
23290;SDS011;11814;44.686;10.842;2023-04-15T12:51:46;8.88;;;3.88;;
23290;SDS011;11814;44.686;10.842;2023-04-15T12:54:16;8.82;;;3.40;;
23290;SDS011;11814;44.686;10.842;2023-04-15T12:56:43;8.18;;;4.13;;
23290;SDS011;11814;44.686;10.842;2023-04-15T12:59:10;6.05;;;3.38;;
23290;SDS011;11814;44.686;10.842;2023-04-15T13:01:36;6.75;;;3.38;;
23290;SDS011;11814;44.686;10.842;2023-04-15T13:04:03;6.53;;;3.33;;
23290;SDS011;11814;44.686;10.842;2023-04-15T13:06:29;9.85;;;3.75;;
23290;SDS011;11814;44.686;10.842;2023-04-15T13:08:57;9.50;;;3.75;;
23290;SDS011;11814;44.686;10.842;2023-04-15T13:11:24;8.85;;;3.50;;
23290;SDS011;11814;44.686;10.842;2023-04-15T13:13:50;6.22;;;3.50;;
23290;SDS011;11814;44.686;10.842;2023-04-15T13:16:17;6.57;;;3.60;;
23290;SDS011;11814;44.686;10.842;2023-04-15T13:18:43;4.60;;;2.90;;
23290;SDS011;11814;44.686;10.842;2023-04-15T13:21:11;5.88;;;3.53;;
23290;SDS011;11814;44.686;10.842;2023-04-15T13:23:37;4.75;;;3.40;;
23290;SDS011;11814;44.686;10.842;2023-04-15T13:26:02;6.60;;;3.45;;
23290;SDS011;11814;44.686;10.842;2023-04-15T13:28:28;6.72;;;3.63;;
23290;SDS011;11814;44.686;10.842;2023-04-15T13:30:54;7.50;;;3.92;;
23290;SDS011;11814;44.686;10.842;2023-04-15T13:33:20;6.93;;;3.85;;
23290;SDS011;11814;44.686;10.842;2023-04-15T13:35:45;8.60;;;3.60;;
23290;SDS011;11814;44.686;10.842;2023-04-15T13:38:11;9.77;;;3.95;;
23290;SDS011;11814;44.686;10.842;2023-04-15T13:40:37;9.32;;;4.25;;
23290;SDS011;11814;44.686;10.842;2023-04-15T13:43:03;9.77;;;3.05;;
23290;SDS011;11814;44.686;10.842;2023-04-15T13:45:29;5.10;;;3.05;;
23290;SDS011;11814;44.686;10.842;2023-04-15T13:47:55;5.65;;;3.33;;
23290;SDS011;11814;44.686;10.842;2023-04-15T13:50:21;4.82;;;2.83;;
23290;SDS011;11814;44.686;10.842;2023-04-15T13:52:47;10.27;;;3.22;;
23290;SDS011;11814;44.686;10.842;2023-04-15T13:55:13;7.88;;;3.72;;
23290;SDS011;11814;44.686;10.842;2023-04-15T13:57:38;4.90;;;3.00;;
23290;SDS011;11814;44.686;10.842;2023-04-15T14:00:04;6.72;;;3.60;;
23290;SDS011;11814;44.686;10.842;2023-04-15T14:02:31;6.20;;;3.05;;
23290;SDS011;11814;44.686;10.842;2023-04-15T14:04:57;7.40;;;2.83;;
23290;SDS011;11814;44.686;10.842;2023-04-15T14:07:23;6.78;;;2.78;;
23290;SDS011;11814;44.686;10.842;2023-04-15T14:09:49;11.30;;;3.10;;
23290;SDS011;11814;44.686;10.842;2023-04-15T14:12:14;8.15;;;2.50;;
23290;SDS011;11814;44.686;10.842;2023-04-15T14:14:40;8.32;;;2.50;;
23290;SDS011;11814;44.686;10.842;2023-04-15T14:17:06;7.97;;;2.67;;
23290;SDS011;11814;44.686;10.842;2023-04-15T14:19:32;7.18;;;2.17;;
23290;SDS011;11814;44.686;10.842;2023-04-15T14:21:59;5.78;;;2.35;;
23290;SDS011;11814;44.686;10.842;2023-04-15T14:24:25;6.60;;;2.08;;
23290;SDS011;11814;44.686;10.842;2023-04-15T14:26:51;6.82;;;2.28;;
23290;SDS011;11814;44.686;10.842;2023-04-15T14:29:17;7.90;;;2.47;;
23290;SDS011;11814;44.686;10.842;2023-04-15T14:31:44;3.58;;;2.00;;
23290;SDS011;11814;44.686;10.842;2023-04-15T14:34:10;4.65;;;2.17;;
23290;SDS011;11814;44.686;10.842;2023-04-15T14:36:36;5.93;;;2.22;;
23290;SDS011;11814;44.686;10.842;2023-04-15T14:39:02;8.10;;;2.45;;
23290;SDS011;11814;44.686;10.842;2023-04-15T14:41:28;7.88;;;2.67;;
23290;SDS011;11814;44.686;10.842;2023-04-15T14:43:54;6.80;;;2.40;;
23290;SDS011;11814;44.686;10.842;2023-04-15T14:46:20;8.65;;;1.67;;
23290;SDS011;11814;44.686;10.842;2023-04-15T14:48:47;5.68;;;1.92;;
23290;SDS011;11814;44.686;10.842;2023-04-15T14:51:13;5.90;;;2.10;;
23290;SDS011;11814;44.686;10.842;2023-04-15T14:53:40;3.90;;;2.22;;
23290;SDS011;11814;44.686;10.842;2023-04-15T14:56:06;5.70;;;2.63;;
23290;SDS011;11814;44.686;10.842;2023-04-15T14:58:32;7.25;;;2.83;;
23290;SDS011;11814;44.686;10.842;2023-04-15T15:00:57;5.15;;;2.70;;
23290;SDS011;11814;44.686;10.842;2023-04-15T15:03:23;5.82;;;2.72;;